LSI281 KIAH-MMMY
Flight info
| Callsign | LSI281 |
|---|---|
| Flight time | 1h 22m |
| Altitude | 36000 |
| Route | RITAA7 CRP DCT FETMO DCT CAMUI UJ13 ITPIS ITPIS1A |
| Aircraft | B77L/H-SDE1E2E3FGHIJ2J3J4J5M1RWXY/LB1D1 |
Departure
| Time | 2026-04-24 19:49 |
|---|---|
| Airport | George Bush Intercontinental Airport (KIAH) |
Arrival
| Time | 2026-04-24 21:12 |
|---|---|
| Airport | Monterrey International Airport (MMMY) |
| Time | Latitude | Longitude | Altitude | Speed | Heading |
|---|---|---|---|---|---|
| 2026-04-24 19:22 | 29.97696 | -95.34498 | 104 ft | 0 kts | 171° |
| 2026-04-24 19:40 | 29.97710 | -95.34499 | 105 ft | 3 kts | 186° |
| 2026-04-24 19:40 | 29.97730 | -95.34494 | 103 ft | 3 kts | 206° |
| 2026-04-24 19:40 | 29.97746 | -95.34482 | 102 ft | 3 kts | 227° |
| 2026-04-24 19:41 | 29.97757 | -95.34463 | 103 ft | 3 kts | 247° |
| 2026-04-24 19:41 | 29.97763 | -95.34442 | 101 ft | 3 kts | 267° |
| 2026-04-24 19:41 | 29.97763 | -95.34438 | 101 ft | 0 kts | 272° |
| 2026-04-24 19:43 | 29.97763 | -95.34447 | 101 ft | 2 kts | 272° |
| 2026-04-24 19:44 | 29.97764 | -95.34475 | 102 ft | 5 kts | 272° |
| 2026-04-24 19:44 | 29.97766 | -95.34522 | 101 ft | 7 kts | 272° |
| 2026-04-24 19:44 | 29.97768 | -95.34586 | 104 ft | 9 kts | 271° |
| 2026-04-24 19:44 | 29.97763 | -95.34636 | 106 ft | 10 kts | 257° |
| 2026-04-24 19:45 | 29.97724 | -95.34712 | 107 ft | 12 kts | 232° |
| 2026-04-24 19:45 | 29.97676 | -95.34792 | 104 ft | 12 kts | 243° |
| 2026-04-24 19:45 | 29.97675 | -95.34883 | 107 ft | 13 kts | 308° |
| 2026-04-24 19:45 | 29.97755 | -95.34944 | 106 ft | 15 kts | 330° |
| 2026-04-24 19:46 | 29.97855 | -95.35006 | 107 ft | 18 kts | 332° |
| 2026-04-24 19:46 | 29.97973 | -95.35076 | 108 ft | 20 kts | 333° |
| 2026-04-24 19:46 | 29.98106 | -95.35155 | 106 ft | 23 kts | 333° |
| 2026-04-24 19:46 | 29.98252 | -95.35245 | 106 ft | 24 kts | 331° |
| 2026-04-24 19:47 | 29.98399 | -95.35338 | 107 ft | 24 kts | 333° |
| 2026-04-24 19:47 | 29.98549 | -95.35426 | 107 ft | 24 kts | 333° |
| 2026-04-24 19:47 | 29.98690 | -95.35511 | 107 ft | 18 kts | 332° |
| 2026-04-24 19:47 | 29.98784 | -95.35570 | 108 ft | 15 kts | 332° |
| 2026-04-24 19:48 | 29.98828 | -95.35665 | 108 ft | 15 kts | 252° |
| 2026-04-24 19:48 | 29.98753 | -95.35743 | 110 ft | 15 kts | 186° |
| 2026-04-24 19:48 | 29.98454 | -95.35574 | 108 ft | 75 kts | 152° |
| 2026-04-24 19:49 | 29.96480 | -95.34395 | 735 ft | 209 kts | 154° |
| 2026-04-24 19:49 | 29.94215 | -95.32261 | 2889 ft | 210 kts | 126° |
| 2026-04-24 19:50 | 29.91400 | -95.27726 | 4017 ft | 267 kts | 130° |
| 2026-04-24 19:50 | 29.90260 | -95.26013 | 4013 ft | 271 kts | 130° |
| 2026-04-24 19:51 | 29.87972 | -95.22528 | 4237 ft | 276 kts | 128° |
| 2026-04-24 19:51 | 29.86853 | -95.20716 | 4876 ft | 277 kts | 128° |
| 2026-04-24 19:52 | 29.84601 | -95.17077 | 4971 ft | 280 kts | 128° |
| 2026-04-24 19:52 | 29.83478 | -95.15272 | 4974 ft | 275 kts | 128° |
| 2026-04-24 19:52 | 29.82346 | -95.13502 | 4976 ft | 272 kts | 134° |
| 2026-04-24 19:52 | 29.80936 | -95.12075 | 5455 ft | 271 kts | 146° |
| 2026-04-24 19:53 | 29.79388 | -95.10767 | 6334 ft | 279 kts | 147° |
| 2026-04-24 19:53 | 29.77800 | -95.09424 | 7144 ft | 284 kts | 148° |
| 2026-04-24 19:53 | 29.74090 | -95.08625 | 8699 ft | 278 kts | 200° |
| 2026-04-24 19:54 | 29.72376 | -95.09612 | 9535 ft | 277 kts | 219° |
| 2026-04-24 19:54 | 29.70882 | -95.11019 | 10291 ft | 278 kts | 222° |
| 2026-04-24 19:54 | 29.69391 | -95.12451 | 11072 ft | 280 kts | 223° |
| 2026-04-24 19:54 | 29.67891 | -95.13881 | 11851 ft | 282 kts | 223° |
| 2026-04-24 19:55 | 29.66885 | -95.14835 | 12399 ft | 284 kts | 223° |
| 2026-04-24 19:55 | 29.64896 | -95.16842 | 13513 ft | 285 kts | 227° |
| 2026-04-24 19:55 | 29.63468 | -95.18430 | 14290 ft | 286 kts | 228° |
| 2026-04-24 19:55 | 29.62039 | -95.20019 | 15051 ft | 286 kts | 228° |
| 2026-04-24 19:56 | 29.60602 | -95.21604 | 15842 ft | 286 kts | 228° |
| 2026-04-24 19:56 | 29.59185 | -95.23163 | 16603 ft | 286 kts | 229° |
| 2026-04-24 19:56 | 29.57828 | -95.24880 | 17238 ft | 291 kts | 234° |
| 2026-04-24 19:56 | 29.56549 | -95.26704 | 17722 ft | 303 kts | 236° |
| 2026-04-24 19:57 | 29.55215 | -95.28651 | 18185 ft | 317 kts | 236° |
| 2026-04-24 19:57 | 29.53825 | -95.30677 | 18590 ft | 329 kts | 236° |
| 2026-04-24 19:57 | 29.52377 | -95.32770 | 19015 ft | 341 kts | 236° |
| 2026-04-24 19:57 | 29.50867 | -95.34939 | 19418 ft | 355 kts | 235° |
| 2026-04-24 19:58 | 29.49271 | -95.37223 | 19528 ft | 378 kts | 235° |
| 2026-04-24 19:58 | 29.47578 | -95.39632 | 19729 ft | 396 kts | 235° |
| 2026-04-24 19:58 | 29.45821 | -95.42121 | 20150 ft | 406 kts | 234° |
| 2026-04-24 19:58 | 29.44024 | -95.44658 | 20718 ft | 412 kts | 234° |
| 2026-04-24 19:59 | 29.42210 | -95.47214 | 21379 ft | 414 kts | 235° |
| 2026-04-24 19:59 | 29.40389 | -95.49778 | 22095 ft | 416 kts | 235° |
| 2026-04-24 19:59 | 29.38559 | -95.52356 | 22750 ft | 419 kts | 235° |
| 2026-04-24 19:59 | 29.36711 | -95.54963 | 23343 ft | 423 kts | 235° |
| 2026-04-24 20:00 | 29.34856 | -95.57580 | 23846 ft | 426 kts | 236° |
| 2026-04-24 20:00 | 29.32978 | -95.60225 | 24380 ft | 428 kts | 236° |
| 2026-04-24 20:00 | 29.31097 | -95.62872 | 24927 ft | 430 kts | 236° |
| 2026-04-24 20:00 | 29.29204 | -95.65536 | 25447 ft | 432 kts | 236° |
| 2026-04-24 20:01 | 29.27299 | -95.68215 | 25964 ft | 434 kts | 236° |
| 2026-04-24 20:01 | 29.25386 | -95.70903 | 26486 ft | 437 kts | 236° |
| 2026-04-24 20:01 | 29.23466 | -95.73600 | 26991 ft | 439 kts | 236° |
| 2026-04-24 20:01 | 29.21527 | -95.76322 | 27481 ft | 442 kts | 236° |
| 2026-04-24 20:02 | 29.20208 | -95.78170 | 27820 ft | 444 kts | 236° |
| 2026-04-24 20:02 | 29.17464 | -95.81681 | 28458 ft | 450 kts | 233° |
| 2026-04-24 20:02 | 29.15298 | -95.84280 | 28892 ft | 454 kts | 232° |
| 2026-04-24 20:02 | 29.13104 | -95.86891 | 29295 ft | 456 kts | 232° |
| 2026-04-24 20:03 | 29.10901 | -95.89510 | 29847 ft | 455 kts | 232° |
| 2026-04-24 20:03 | 29.08717 | -95.92108 | 30464 ft | 451 kts | 233° |
| 2026-04-24 20:03 | 29.06561 | -95.94678 | 31076 ft | 446 kts | 233° |
| 2026-04-24 20:03 | 29.04423 | -95.97232 | 31662 ft | 443 kts | 233° |
| 2026-04-24 20:04 | 29.02301 | -95.99772 | 32183 ft | 440 kts | 234° |
| 2026-04-24 20:04 | 29.00192 | -96.02296 | 32675 ft | 438 kts | 234° |
| 2026-04-24 20:04 | 28.98091 | -96.04811 | 33158 ft | 436 kts | 234° |
| 2026-04-24 20:04 | 28.96002 | -96.07308 | 33648 ft | 434 kts | 234° |
| 2026-04-24 20:05 | 28.93920 | -96.09795 | 34088 ft | 432 kts | 234° |
| 2026-04-24 20:05 | 28.91849 | -96.12267 | 34483 ft | 430 kts | 234° |
| 2026-04-24 20:05 | 28.89787 | -96.14727 | 34847 ft | 428 kts | 235° |
| 2026-04-24 20:05 | 28.87733 | -96.17177 | 35209 ft | 427 kts | 235° |
| 2026-04-24 20:06 | 28.85683 | -96.19619 | 35573 ft | 425 kts | 235° |
| 2026-04-24 20:06 | 28.83644 | -96.22048 | 35867 ft | 425 kts | 235° |
| 2026-04-24 20:06 | 28.81590 | -96.24497 | 35835 ft | 427 kts | 235° |
| 2026-04-24 20:07 | 28.78181 | -96.28549 | 35834 ft | 424 kts | 235° |
| 2026-04-24 20:07 | 28.73385 | -96.34082 | 35835 ft | 423 kts | 233° |
| 2026-04-24 20:08 | 28.69119 | -96.38701 | 35844 ft | 422 kts | 232° |
| 2026-04-24 20:08 | 28.64862 | -96.43304 | 35835 ft | 422 kts | 233° |
| 2026-04-24 20:09 | 28.60618 | -96.47921 | 35829 ft | 422 kts | 233° |
| 2026-04-24 20:09 | 28.56376 | -96.52548 | 35831 ft | 423 kts | 233° |
| 2026-04-24 20:10 | 28.52127 | -96.57181 | 35827 ft | 424 kts | 233° |
| 2026-04-24 20:10 | 28.47859 | -96.61827 | 35826 ft | 425 kts | 233° |
| 2026-04-24 20:11 | 28.43585 | -96.66475 | 35833 ft | 426 kts | 233° |
| 2026-04-24 20:11 | 28.39298 | -96.71130 | 35827 ft | 427 kts | 233° |
| 2026-04-24 20:12 | 28.34997 | -96.75794 | 35825 ft | 427 kts | 233° |
| 2026-04-24 20:12 | 28.30697 | -96.80452 | 35826 ft | 427 kts | 233° |
| 2026-04-24 20:13 | 28.26392 | -96.85110 | 35830 ft | 427 kts | 232° |
| 2026-04-24 20:13 | 28.22091 | -96.89759 | 35829 ft | 427 kts | 232° |
| 2026-04-24 20:14 | 28.17784 | -96.94410 | 35820 ft | 428 kts | 232° |
| 2026-04-24 20:14 | 28.13473 | -96.99058 | 35839 ft | 427 kts | 232° |
| 2026-04-24 20:15 | 28.09166 | -97.03698 | 35832 ft | 427 kts | 232° |
| 2026-04-24 20:15 | 28.04886 | -97.08305 | 35831 ft | 427 kts | 232° |
| 2026-04-24 20:16 | 28.00813 | -97.13114 | 35823 ft | 416 kts | 242° |
| 2026-04-24 20:16 | 27.97867 | -97.18651 | 35835 ft | 409 kts | 250° |
| 2026-04-24 20:17 | 27.95933 | -97.24669 | 35850 ft | 408 kts | 258° |
| 2026-04-24 20:17 | 27.93403 | -97.33898 | 35830 ft | 410 kts | 257° |
| 2026-04-24 20:18 | 27.91537 | -97.39991 | 35816 ft | 415 kts | 248° |
| 2026-04-24 20:18 | 27.87890 | -97.45203 | 35816 ft | 430 kts | 232° |
| 2026-04-24 20:19 | 27.85543 | -97.47343 | 35801 ft | 442 kts | 220° |
| 2026-04-24 20:19 | 27.82807 | -97.48978 | 35818 ft | 447 kts | 217° |
| 2026-04-24 20:19 | 27.77177 | -97.52011 | 35814 ft | 449 kts | 216° |
| 2026-04-24 20:20 | 27.71527 | -97.55040 | 35807 ft | 449 kts | 216° |
| 2026-04-24 20:20 | 27.65902 | -97.58122 | 35816 ft | 450 kts | 216° |
| 2026-04-24 20:21 | 27.60283 | -97.61236 | 35817 ft | 451 kts | 216° |
| 2026-04-24 20:21 | 27.54659 | -97.64356 | 35807 ft | 451 kts | 216° |
| 2026-04-24 20:22 | 27.49018 | -97.67481 | 35815 ft | 452 kts | 216° |
| 2026-04-24 20:22 | 27.43374 | -97.70603 | 35815 ft | 452 kts | 216° |
| 2026-04-24 20:23 | 27.37724 | -97.73724 | 35806 ft | 453 kts | 216° |
| 2026-04-24 20:23 | 27.32065 | -97.76846 | 35801 ft | 453 kts | 216° |
| 2026-04-24 20:24 | 27.26405 | -97.79965 | 35807 ft | 453 kts | 216° |
| 2026-04-24 20:24 | 27.20738 | -97.83084 | 35801 ft | 454 kts | 216° |
| 2026-04-24 20:25 | 27.15061 | -97.86206 | 35809 ft | 454 kts | 216° |
| 2026-04-24 20:25 | 27.09374 | -97.89330 | 35792 ft | 456 kts | 216° |
| 2026-04-24 20:26 | 27.03676 | -97.92455 | 35789 ft | 455 kts | 216° |
| 2026-04-24 20:26 | 26.98025 | -97.95550 | 35791 ft | 455 kts | 216° |
| 2026-04-24 20:27 | 26.92299 | -97.98684 | 35789 ft | 455 kts | 215° |
| 2026-04-24 20:27 | 26.86614 | -98.01792 | 35787 ft | 455 kts | 215° |
| 2026-04-24 20:28 | 26.80959 | -98.04881 | 35789 ft | 455 kts | 215° |
| 2026-04-24 20:28 | 26.75269 | -98.07985 | 35781 ft | 455 kts | 215° |
| 2026-04-24 20:29 | 26.69571 | -98.11090 | 35777 ft | 456 kts | 215° |
| 2026-04-24 20:29 | 26.63871 | -98.14193 | 35771 ft | 456 kts | 215° |
| 2026-04-24 20:30 | 26.58162 | -98.17296 | 35772 ft | 456 kts | 215° |
| 2026-04-24 20:30 | 26.52458 | -98.20394 | 35777 ft | 456 kts | 215° |
| 2026-04-24 20:31 | 26.46750 | -98.23490 | 35776 ft | 456 kts | 215° |
| 2026-04-24 20:31 | 26.41038 | -98.26586 | 35775 ft | 456 kts | 215° |
| 2026-04-24 20:32 | 26.36252 | -98.29177 | 35776 ft | 457 kts | 215° |
| 2026-04-24 20:32 | 26.30531 | -98.32272 | 35782 ft | 457 kts | 215° |
| 2026-04-24 20:33 | 26.24851 | -98.35341 | 35781 ft | 457 kts | 214° |
| 2026-04-24 20:33 | 26.19726 | -98.39133 | 35784 ft | 428 kts | 237° |
| 2026-04-24 20:34 | 26.16803 | -98.44748 | 35783 ft | 417 kts | 256° |
| 2026-04-24 20:34 | 26.15744 | -98.51044 | 35775 ft | 417 kts | 264° |
| 2026-04-24 20:35 | 26.14798 | -98.57459 | 35774 ft | 422 kts | 263° |
| 2026-04-24 20:35 | 26.13781 | -98.63881 | 35755 ft | 419 kts | 263° |
| 2026-04-24 20:36 | 26.12577 | -98.70159 | 35761 ft | 414 kts | 258° |
| 2026-04-24 20:36 | 26.11037 | -98.76331 | 35757 ft | 414 kts | 258° |
| 2026-04-24 20:37 | 26.09496 | -98.82496 | 35759 ft | 414 kts | 258° |
| 2026-04-24 20:37 | 26.07961 | -98.88668 | 35761 ft | 414 kts | 258° |
| 2026-04-24 20:38 | 26.06424 | -98.94858 | 35763 ft | 415 kts | 258° |
| 2026-04-24 20:38 | 26.04882 | -99.01055 | 35760 ft | 416 kts | 258° |
| 2026-04-24 20:39 | 26.03333 | -99.07271 | 35754 ft | 417 kts | 258° |
| 2026-04-24 20:39 | 26.01780 | -99.13490 | 35751 ft | 418 kts | 258° |
| 2026-04-24 20:40 | 26.00222 | -99.19714 | 35749 ft | 418 kts | 258° |
| 2026-04-24 20:40 | 25.98464 | -99.25898 | 35754 ft | 420 kts | 255° |
| 2026-04-24 20:41 | 25.96565 | -99.32038 | 35747 ft | 420 kts | 255° |
| 2026-04-24 20:41 | 25.94687 | -99.38115 | 35635 ft | 409 kts | 255° |
| 2026-04-24 20:42 | 25.93771 | -99.41091 | 35263 ft | 404 kts | 255° |
| 2026-04-24 20:42 | 25.92870 | -99.44023 | 34845 ft | 399 kts | 256° |
| 2026-04-24 20:42 | 25.91984 | -99.46913 | 34451 ft | 394 kts | 256° |
| 2026-04-24 20:42 | 25.91103 | -99.49784 | 33986 ft | 391 kts | 256° |
| 2026-04-24 20:43 | 25.90241 | -99.52596 | 33495 ft | 388 kts | 256° |
| 2026-04-24 20:43 | 25.89372 | -99.55426 | 32976 ft | 386 kts | 256° |
| 2026-04-24 20:43 | 25.88497 | -99.58268 | 32474 ft | 383 kts | 255° |
| 2026-04-24 20:43 | 25.87647 | -99.61021 | 31988 ft | 380 kts | 255° |
| 2026-04-24 20:44 | 25.86489 | -99.63706 | 31478 ft | 385 kts | 243° |
| 2026-04-24 20:44 | 25.84895 | -99.66057 | 31038 ft | 388 kts | 236° |
| 2026-04-24 20:44 | 25.83017 | -99.68222 | 30563 ft | 392 kts | 228° |
| 2026-04-24 20:44 | 25.80678 | -99.69868 | 29991 ft | 412 kts | 208° |
| 2026-04-24 20:45 | 25.77789 | -99.70449 | 29300 ft | 437 kts | 185° |
| 2026-04-24 20:45 | 25.74755 | -99.69771 | 28700 ft | 458 kts | 163° |
| 2026-04-24 20:45 | 25.71997 | -99.67883 | 28129 ft | 478 kts | 142° |
| 2026-04-24 20:45 | 25.69917 | -99.64969 | 27726 ft | 487 kts | 119° |
| 2026-04-24 20:46 | 25.68831 | -99.61427 | 27462 ft | 486 kts | 97° |
| 2026-04-24 20:46 | 25.68856 | -99.57732 | 27182 ft | 477 kts | 75° |
| 2026-04-24 20:46 | 25.69960 | -99.54336 | 26844 ft | 463 kts | 53° |
| 2026-04-24 20:46 | 25.71963 | -99.51650 | 26483 ft | 446 kts | 33° |
| 2026-04-24 20:47 | 25.74504 | -99.49828 | 26142 ft | 428 kts | 15° |
| 2026-04-24 20:47 | 25.77290 | -99.48931 | 25820 ft | 409 kts | 359° |
| 2026-04-24 20:47 | 25.80070 | -99.48912 | 25499 ft | 393 kts | 344° |
| 2026-04-24 20:47 | 25.82662 | -99.49655 | 25210 ft | 378 kts | 330° |
| 2026-04-24 20:48 | 25.84903 | -99.51025 | 25152 ft | 357 kts | 317° |
| 2026-04-24 20:48 | 25.86670 | -99.52794 | 25019 ft | 331 kts | 306° |
| 2026-04-24 20:48 | 25.87955 | -99.54819 | 24799 ft | 313 kts | 296° |
| 2026-04-24 20:48 | 25.88924 | -99.56924 | 24494 ft | 302 kts | 291° |
| 2026-04-24 20:49 | 25.89608 | -99.59099 | 24043 ft | 295 kts | 281° |
| 2026-04-24 20:49 | 25.89666 | -99.61339 | 23391 ft | 295 kts | 259° |
| 2026-04-24 20:49 | 25.88802 | -99.63435 | 22537 ft | 306 kts | 238° |
| 2026-04-24 20:49 | 25.87295 | -99.65144 | 21767 ft | 314 kts | 225° |
| 2026-04-24 20:50 | 25.85517 | -99.66563 | 21127 ft | 315 kts | 220° |
| 2026-04-24 20:50 | 25.83673 | -99.67866 | 20522 ft | 313 kts | 219° |
| 2026-04-24 20:50 | 25.81868 | -99.69181 | 19909 ft | 305 kts | 227° |
| 2026-04-24 20:50 | 25.80583 | -99.70965 | 19238 ft | 293 kts | 249° |
| 2026-04-24 20:51 | 25.80028 | -99.73092 | 18629 ft | 286 kts | 266° |
| 2026-04-24 20:51 | 25.80053 | -99.75293 | 18031 ft | 285 kts | 277° |
| 2026-04-24 20:51 | 25.80581 | -99.77399 | 17350 ft | 285 kts | 296° |
| 2026-04-24 20:51 | 25.81609 | -99.79239 | 16706 ft | 286 kts | 300° |
| 2026-04-24 20:52 | 25.82712 | -99.81076 | 16099 ft | 285 kts | 300° |
| 2026-04-24 20:52 | 25.83798 | -99.82910 | 15473 ft | 284 kts | 299° |
| 2026-04-24 20:52 | 25.84881 | -99.84774 | 15319 ft | 288 kts | 299° |
| 2026-04-24 20:52 | 25.85943 | -99.86609 | 15114 ft | 276 kts | 299° |
| 2026-04-24 20:53 | 25.86970 | -99.88395 | 14856 ft | 273 kts | 298° |
| 2026-04-24 20:53 | 25.87978 | -99.90155 | 14657 ft | 266 kts | 298° |
| 2026-04-24 20:53 | 25.88958 | -99.91867 | 14406 ft | 260 kts | 298° |
| 2026-04-24 20:53 | 25.89923 | -99.93555 | 14091 ft | 258 kts | 298° |
| 2026-04-24 20:54 | 25.90882 | -99.95235 | 14064 ft | 264 kts | 298° |
| 2026-04-24 20:54 | 25.91872 | -99.96970 | 14030 ft | 266 kts | 298° |
| 2026-04-24 20:54 | 25.92855 | -99.98689 | 14010 ft | 262 kts | 298° |
| 2026-04-24 20:54 | 25.93827 | -100.00389 | 13781 ft | 260 kts | 298° |
| 2026-04-24 20:55 | 25.94791 | -100.02075 | 13405 ft | 258 kts | 298° |
| 2026-04-24 20:55 | 25.95754 | -100.03762 | 12955 ft | 259 kts | 298° |
| 2026-04-24 20:55 | 25.96718 | -100.05448 | 12594 ft | 258 kts | 298° |
| 2026-04-24 20:55 | 25.97677 | -100.07131 | 12406 ft | 258 kts | 298° |
| 2026-04-24 20:56 | 25.98635 | -100.08811 | 12108 ft | 257 kts | 298° |
| 2026-04-24 20:56 | 25.99589 | -100.10485 | 11719 ft | 256 kts | 299° |
| 2026-04-24 20:56 | 26.00543 | -100.12159 | 11315 ft | 256 kts | 299° |
| 2026-04-24 20:56 | 26.01497 | -100.13833 | 10925 ft | 256 kts | 299° |
| 2026-04-24 20:57 | 26.02449 | -100.15505 | 10537 ft | 256 kts | 299° |
| 2026-04-24 20:57 | 26.03402 | -100.17178 | 10181 ft | 256 kts | 300° |
| 2026-04-24 20:57 | 26.04250 | -100.18889 | 9752 ft | 251 kts | 284° |
| 2026-04-24 20:57 | 26.04329 | -100.20798 | 9287 ft | 249 kts | 254° |
| 2026-04-24 20:58 | 26.03602 | -100.22529 | 9100 ft | 249 kts | 234° |
| 2026-04-24 20:58 | 26.02358 | -100.23853 | 8682 ft | 247 kts | 214° |
| 2026-04-24 20:58 | 26.00922 | -100.24826 | 8266 ft | 238 kts | 212° |
| 2026-04-24 20:58 | 25.99498 | -100.25746 | 7735 ft | 236 kts | 212° |
| 2026-04-24 20:59 | 25.98083 | -100.26664 | 7298 ft | 232 kts | 212° |
| 2026-04-24 20:59 | 25.96702 | -100.27567 | 6857 ft | 229 kts | 212° |
| 2026-04-24 20:59 | 25.95336 | -100.28475 | 6427 ft | 226 kts | 212° |
| 2026-04-24 20:59 | 25.93970 | -100.29388 | 6189 ft | 237 kts | 213° |
| 2026-04-24 21:00 | 25.92521 | -100.30358 | 5852 ft | 247 kts | 211° |
| 2026-04-24 21:00 | 25.90916 | -100.30968 | 5497 ft | 246 kts | 181° |
| 2026-04-24 21:00 | 25.89292 | -100.30556 | 5198 ft | 239 kts | 147° |
| 2026-04-24 21:00 | 25.88095 | -100.29374 | 5096 ft | 226 kts | 126° |
| 2026-04-24 21:01 | 25.87232 | -100.27910 | 5084 ft | 230 kts | 120° |
| 2026-04-24 21:01 | 25.86364 | -100.26302 | 4517 ft | 252 kts | 120° |
| 2026-04-24 21:01 | 25.85480 | -100.24654 | 4017 ft | 243 kts | 119° |
| 2026-04-24 21:01 | 25.84641 | -100.23098 | 3687 ft | 226 kts | 120° |
| 2026-04-24 21:02 | 25.83865 | -100.21669 | 3414 ft | 214 kts | 120° |
| 2026-04-24 21:02 | 25.83106 | -100.20267 | 3162 ft | 208 kts | 121° |
| 2026-04-24 21:02 | 25.82382 | -100.18937 | 3141 ft | 197 kts | 121° |
| 2026-04-24 21:02 | 25.81670 | -100.17652 | 3166 ft | 192 kts | 121° |
| 2026-04-24 21:03 | 25.81003 | -100.16447 | 3066 ft | 175 kts | 120° |
| 2026-04-24 21:03 | 25.80404 | -100.15369 | 3025 ft | 153 kts | 123° |
| 2026-04-24 21:03 | 25.79562 | -100.14665 | 2851 ft | 169 kts | 167° |
| 2026-04-24 21:03 | 25.78335 | -100.14865 | 2981 ft | 197 kts | 207° |
| 2026-04-24 21:04 | 25.77263 | -100.16039 | 3046 ft | 237 kts | 239° |
| 2026-04-24 21:04 | 25.76854 | -100.17792 | 3012 ft | 237 kts | 272° |
| 2026-04-24 21:04 | 25.77296 | -100.19534 | 3029 ft | 236 kts | 297° |
| 2026-04-24 21:04 | 25.78095 | -100.21149 | 3033 ft | 240 kts | 301° |
| 2026-04-24 21:05 | 25.78925 | -100.22723 | 3027 ft | 231 kts | 301° |
| 2026-04-24 21:05 | 25.79753 | -100.24210 | 3025 ft | 225 kts | 310° |
| 2026-04-24 21:05 | 25.80975 | -100.25217 | 3027 ft | 216 kts | 343° |
| 2026-04-24 21:05 | 25.82392 | -100.25275 | 3010 ft | 198 kts | 20° |
| 2026-04-24 21:06 | 25.83425 | -100.24448 | 3020 ft | 179 kts | 60° |
| 2026-04-24 21:06 | 25.83716 | -100.23147 | 3025 ft | 175 kts | 89° |
| 2026-04-24 21:06 | 25.84013 | -100.21863 | 3011 ft | 176 kts | 52° |
| 2026-04-24 21:06 | 25.85036 | -100.21110 | 3014 ft | 185 kts | 12° |
| 2026-04-24 21:07 | 25.86296 | -100.21291 | 3032 ft | 188 kts | 333° |
| 2026-04-24 21:07 | 25.87168 | -100.22334 | 3031 ft | 189 kts | 293° |
| 2026-04-24 21:07 | 25.87251 | -100.23759 | 3035 ft | 188 kts | 251° |
| 2026-04-24 21:07 | 25.86496 | -100.24916 | 3048 ft | 190 kts | 211° |
| 2026-04-24 21:08 | 25.85251 | -100.25289 | 3056 ft | 188 kts | 171° |
| 2026-04-24 21:08 | 25.84098 | -100.24722 | 3021 ft | 181 kts | 131° |
| 2026-04-24 21:08 | 25.83540 | -100.23524 | 3043 ft | 175 kts | 104° |
| 2026-04-24 21:08 | 25.83319 | -100.22188 | 3034 ft | 176 kts | 97° |
| 2026-04-24 21:09 | 25.83119 | -100.20845 | 3032 ft | 178 kts | 106° |
| 2026-04-24 21:09 | 25.82673 | -100.19551 | 2990 ft | 184 kts | 112° |
| 2026-04-24 21:09 | 25.82141 | -100.18243 | 2741 ft | 185 kts | 117° |
| 2026-04-24 21:09 | 25.81485 | -100.17033 | 2485 ft | 179 kts | 120° |
| 2026-04-24 21:10 | 25.80837 | -100.15920 | 2245 ft | 166 kts | 119° |
| 2026-04-24 21:10 | 25.80240 | -100.14902 | 2038 ft | 149 kts | 119° |
| 2026-04-24 21:10 | 25.79672 | -100.14038 | 1810 ft | 126 kts | 119° |
| 2026-04-24 21:10 | 25.79252 | -100.13324 | 1635 ft | 99 kts | 108° |
| 2026-04-24 21:11 | 25.78914 | -100.12673 | 1544 ft | 99 kts | 107° |
| 2026-04-24 21:11 | 25.78589 | -100.12043 | 1434 ft | 89 kts | 107° |
| 2026-04-24 21:11 | 25.78271 | -100.11465 | 1299 ft | 85 kts | 107° |
| 2026-04-24 21:11 | 25.78017 | -100.10977 | 1290 ft | 62 kts | 122° |
| 2026-04-24 21:12 | 25.77875 | -100.10722 | 1288 ft | 15 kts | 122° |
| 2026-04-24 21:12 | 25.77808 | -100.10678 | 1285 ft | 18 kts | 167° |
| 2026-04-24 21:12 | 25.77657 | -100.10640 | 1286 ft | 8 kts | 167° |
| 2026-04-24 21:12 | 25.77620 | -100.10675 | 1288 ft | 8 kts | 259° |
| 2026-04-24 21:13 | 25.77628 | -100.10699 | 1285 ft | 4 kts | 305° |
| 2026-04-24 21:13 | 25.77650 | -100.10730 | 1285 ft | 7 kts | 306° |
| 2026-04-24 21:13 | 25.77681 | -100.10781 | 1285 ft | 9 kts | 302° |
| 2026-04-24 21:13 | 25.77712 | -100.10840 | 1287 ft | 9 kts | 300° |
| 2026-04-24 21:14 | 25.77743 | -100.10899 | 1287 ft | 9 kts | 300° |
| 2026-04-24 21:14 | 25.77774 | -100.10958 | 1289 ft | 9 kts | 299° |
| 2026-04-24 21:14 | 25.77804 | -100.11018 | 1288 ft | 9 kts | 300° |
| 2026-04-24 21:14 | 25.77796 | -100.11080 | 1286 ft | 9 kts | 226° |
| 2026-04-24 21:15 | 25.77741 | -100.11117 | 1290 ft | 9 kts | 193° |
| 2026-04-24 21:15 | 25.77686 | -100.11085 | 1288 ft | 10 kts | 129° |
| 2026-04-24 21:15 | 25.77646 | -100.11025 | 1289 ft | 10 kts | 127° |
| 2026-04-24 21:15 | 25.77592 | -100.10986 | 1288 ft | 10 kts | 164° |
| 2026-04-24 21:16 | 25.77569 | -100.10947 | 1290 ft | 6 kts | 81° |
| 2026-04-24 21:16 | 25.77578 | -100.10911 | 1288 ft | 4 kts | 70° |
| 2026-04-24 21:16 | 25.77582 | -100.10897 | 1285 ft | 0 kts | 75° |
| 2026-04-24 21:16 | 25.77582 | -100.10896 | 1285 ft | 0 kts | 75° |